createdAt,value
2022-09-03T00:00:25.562Z,4.20
2022-09-03T00:03:21.990Z,5.60
2022-09-03T00:06:17.596Z,5.70
2022-09-03T00:09:14.134Z,5.10
2022-09-03T00:12:11.627Z,5.80
2022-09-03T00:15:06.707Z,6.40
2022-09-03T00:18:00.064Z,5.50
2022-09-03T00:20:55.363Z,5.20
2022-09-03T00:23:49.023Z,5.60
2022-09-03T00:26:43.443Z,5.30
2022-09-03T00:29:37.797Z,5.90
2022-09-03T00:32:36.231Z,11.30
2022-09-03T00:35:31.994Z,6.10
2022-09-03T00:38:23.725Z,5.60
2022-09-03T00:41:31.725Z,7.60
2022-09-03T00:44:40.048Z,5.00
2022-09-03T00:47:38.709Z,6.80
2022-09-03T00:50:42.604Z,5.60
2022-09-03T00:53:40.369Z,4.40
2022-09-03T00:56:38.152Z,6.40
2022-09-03T00:59:38.623Z,6.80
2022-09-03T01:02:38.324Z,5.00
2022-09-03T01:05:43.604Z,5.40
2022-09-03T01:08:50.965Z,5.10
2022-09-03T01:11:51.856Z,4.50
2022-09-03T01:14:52.445Z,4.70
2022-09-03T01:17:52.950Z,6.80
2022-09-03T01:20:53.489Z,4.40
2022-09-03T01:24:07.501Z,6.40
2022-09-03T01:27:16.519Z,5.70
2022-09-03T01:30:09.325Z,5.90
2022-09-03T01:33:06.307Z,6.00
2022-09-03T01:36:05.614Z,4.60
2022-09-03T01:39:01.238Z,3.90
2022-09-03T01:42:20.917Z,5.90
2022-09-03T01:45:29.269Z,4.50
2022-09-03T01:48:35.060Z,6.20
2022-09-03T01:51:26.896Z,4.70
2022-09-03T01:54:38.221Z,6.20
2022-09-03T01:57:42.062Z,5.20
2022-09-03T02:00:35.601Z,4.90
2022-09-03T02:03:33.876Z,5.00
2022-09-03T02:06:23.606Z,4.80
2022-09-03T02:09:14.257Z,5.90
2022-09-03T02:12:09.335Z,5.80
2022-09-03T02:14:59.329Z,5.40
2022-09-03T02:17:53.008Z,4.80
2022-09-03T02:20:43.129Z,4.60
2022-09-03T02:23:33.305Z,5.60
2022-09-03T02:26:25.671Z,7.10
2022-09-03T02:29:17.357Z,4.60
2022-09-03T02:32:08.149Z,4.70
2022-09-03T02:34:58.103Z,5.40
2022-09-03T02:37:48.099Z,7.20
2022-09-03T02:40:38.091Z,5.20
2022-09-03T02:43:33.245Z,5.40
2022-09-03T02:46:27.812Z,5.70
2022-09-03T02:49:18.104Z,5.90
2022-09-03T02:52:11.921Z,5.90
2022-09-03T02:55:01.851Z,5.10
2022-09-03T02:57:51.775Z,6.00
2022-09-03T03:00:42.338Z,4.30
2022-09-03T03:03:32.920Z,5.10
2022-09-03T03:06:23.292Z,5.30
2022-09-03T03:09:13.292Z,6.00
2022-09-03T03:12:03.161Z,9.50
2022-09-03T03:14:53.164Z,5.90
2022-09-03T03:17:42.915Z,5.20
2022-09-03T03:20:32.753Z,5.40
2022-09-03T03:23:22.932Z,4.20
2022-09-03T03:26:15.222Z,5.30
2022-09-03T03:29:05.855Z,5.40
2022-09-03T03:31:55.455Z,5.60
2022-09-03T03:34:45.165Z,5.40
2022-09-03T03:37:36.269Z,4.60
2022-09-03T03:40:26.709Z,4.70
2022-09-03T03:43:16.722Z,5.60
2022-09-03T03:46:07.092Z,6.20
2022-09-03T03:48:56.530Z,5.80
2022-09-03T03:51:46.235Z,5.30
2022-09-03T03:54:36.153Z,5.90
2022-09-03T03:57:26.212Z,6.90
2022-09-03T04:00:18.953Z,5.50
2022-09-03T04:03:08.839Z,7.00
2022-09-03T04:06:02.832Z,5.40
2022-09-03T04:08:52.977Z,5.30
2022-09-03T04:11:43.052Z,7.40
2022-09-03T04:14:32.966Z,5.10
2022-09-03T04:17:25.375Z,5.40
2022-09-03T04:20:16.169Z,4.70
2022-09-03T04:23:07.184Z,5.60
2022-09-03T04:25:57.265Z,5.30
2022-09-03T04:28:47.558Z,6.10
2022-09-03T04:31:39.114Z,6.00
2022-09-03T04:34:30.114Z,5.50
2022-09-03T04:37:20.931Z,7.40
2022-09-03T04:40:12.590Z,7.90
2022-09-03T04:43:04.964Z,6.00
2022-09-03T04:45:56.854Z,6.00
2022-09-03T04:48:49.213Z,7.00
2022-09-03T04:51:39.204Z,6.50
2022-09-03T04:54:29.895Z,8.70
2022-09-03T04:57:20.069Z,8.80
2022-09-03T05:00:12.548Z,9.60
2022-09-03T05:03:05.367Z,10.30
2022-09-03T05:05:59.440Z,11.40
2022-09-03T05:08:51.242Z,9.10
2022-09-03T05:11:41.093Z,7.00
2022-09-03T05:14:30.646Z,7.00
2022-09-03T05:17:20.716Z,7.80
2022-09-03T05:20:12.168Z,8.10
2022-09-03T05:23:04.854Z,7.30
2022-09-03T05:26:00.100Z,7.60
2022-09-03T05:28:53.785Z,7.20
2022-09-03T05:31:44.012Z,6.70
2022-09-03T05:34:34.093Z,7.20
2022-09-03T05:37:24.289Z,7.30
2022-09-03T05:40:15.032Z,6.80
2022-09-03T05:43:08.520Z,7.70
2022-09-03T05:46:02.583Z,5.70
2022-09-03T05:48:52.532Z,5.80
2022-09-03T05:51:43.692Z,5.70
2022-09-03T05:54:33.509Z,7.70
2022-09-03T05:57:23.838Z,7.10
2022-09-03T06:00:15.715Z,6.50
2022-09-03T06:03:05.932Z,8.30
2022-09-03T06:05:57.594Z,8.50
2022-09-03T06:08:51.712Z,7.50
2022-09-03T06:11:42.864Z,7.80
2022-09-03T06:14:33.301Z,7.10
2022-09-03T06:17:23.022Z,7.00
2022-09-03T06:20:13.946Z,6.40
2022-09-03T06:23:04.182Z,7.80
2022-09-03T06:26:05.600Z,6.70
2022-09-03T06:28:56.357Z,7.80
2022-09-03T06:31:46.908Z,7.60
2022-09-03T06:34:36.866Z,8.40
2022-09-03T06:37:26.996Z,9.30
2022-09-03T06:40:22.609Z,8.80
2022-09-03T06:43:12.561Z,8.40
2022-09-03T06:46:04.831Z,11.20
2022-09-03T06:48:55.795Z,8.30
2022-09-03T06:51:45.896Z,8.10
2022-09-03T06:54:35.679Z,8.70
2022-09-03T06:57:25.622Z,9.90
2022-09-03T07:00:17.754Z,7.40
2022-09-03T07:03:08.170Z,8.70
2022-09-03T07:06:03.637Z,8.00
2022-09-03T07:08:54.599Z,7.80
2022-09-03T07:11:48.825Z,9.70
2022-09-03T07:14:38.773Z,8.30
2022-09-03T07:17:28.320Z,9.10
2022-09-03T07:20:18.138Z,8.10
2022-09-03T07:23:08.247Z,8.30
2022-09-03T07:26:00.483Z,7.30
2022-09-03T07:28:51.324Z,8.90
2022-09-03T07:31:43.684Z,10.80
2022-09-03T07:34:35.783Z,7.40
2022-09-03T07:37:27.421Z,8.20
2022-09-03T07:40:20.436Z,8.00
2022-09-03T07:43:10.606Z,7.20
2022-09-03T07:46:01.280Z,8.90
2022-09-03T07:48:52.176Z,7.90
2022-09-03T07:51:42.131Z,7.50
2022-09-03T07:54:32.468Z,9.10
2022-09-03T07:57:22.914Z,8.20
2022-09-03T08:00:17.806Z,7.50
2022-09-03T08:03:08.945Z,9.20
2022-09-03T08:06:04.330Z,10.10
2022-09-03T08:09:04.627Z,20.40
2022-09-03T08:11:55.508Z,9.40
2022-09-03T08:14:45.207Z,7.70
2022-09-03T08:17:35.126Z,8.60
2022-09-03T08:20:26.701Z,8.00
2022-09-03T08:23:17.042Z,7.80
2022-09-03T08:26:07.746Z,10.00
2022-09-03T08:28:57.812Z,7.60
2022-09-03T08:31:47.722Z,6.50
2022-09-03T08:34:38.356Z,9.20
2022-09-03T08:37:29.608Z,8.00
2022-09-03T08:40:19.537Z,8.10
2022-09-03T08:43:17.476Z,6.60
2022-09-03T08:46:07.845Z,7.10
2022-09-03T08:48:59.012Z,8.80
2022-09-03T08:51:51.687Z,9.40
2022-09-03T08:54:42.435Z,8.10
2022-09-03T08:57:41.693Z,8.40
2022-09-03T09:00:43.292Z,8.50
2022-09-03T09:03:43.715Z,6.00
2022-09-03T09:06:42.191Z,7.50
2022-09-03T09:09:40.969Z,8.10
2022-09-03T09:12:47.191Z,8.40
2022-09-03T09:15:48.132Z,6.60
2022-09-03T09:18:54.427Z,6.70
2022-09-03T09:21:49.164Z,8.90
2022-09-03T09:24:43.306Z,6.20
2022-09-03T09:27:33.824Z,6.90
2022-09-03T09:30:24.235Z,6.90
2022-09-03T09:33:15.133Z,7.00
2022-09-03T09:36:08.676Z,7.90
2022-09-03T09:39:09.306Z,7.30
2022-09-03T09:42:09.595Z,8.20
2022-09-03T09:45:09.830Z,7.90
2022-09-03T09:47:59.603Z,7.00
2022-09-03T09:50:49.328Z,7.40
2022-09-03T09:53:39.822Z,9.20
2022-09-03T09:56:30.131Z,7.80
2022-09-03T09:59:22.180Z,9.50
2022-09-03T10:02:22.147Z,10.40
2022-09-03T10:05:25.024Z,8.90
2022-09-03T10:08:25.954Z,7.80
2022-09-03T10:11:21.463Z,8.90
2022-09-03T10:14:20.392Z,8.30
2022-09-03T10:17:19.841Z,7.20
2022-09-03T10:20:30.795Z,8.10
2022-09-03T10:23:24.990Z,8.20
2022-09-03T10:26:18.858Z,7.20
2022-09-03T10:29:10.164Z,8.50
2022-09-03T10:32:11.746Z,7.90
2022-09-03T10:35:10.622Z,7.70
2022-09-03T10:38:12.045Z,7.10
2022-09-03T10:41:13.887Z,7.00
2022-09-03T10:44:27.124Z,7.30
2022-09-03T10:47:42.086Z,11.00
2022-09-03T10:50:35.474Z,7.60
2022-09-03T10:53:40.917Z,8.30
2022-09-03T10:56:39.885Z,9.80
2022-09-03T10:59:45.568Z,7.80
2022-09-03T11:02:54.001Z,8.30
2022-09-03T11:05:50.391Z,10.60
2022-09-03T11:08:44.217Z,7.50
2022-09-03T11:11:39.412Z,9.80
2022-09-03T11:14:38.089Z,8.50
2022-09-03T11:17:32.228Z,7.70
2022-09-03T11:20:25.158Z,9.20
2022-09-03T11:23:17.572Z,6.40
2022-09-03T11:26:13.551Z,6.40
2022-09-03T11:29:10.501Z,16.00
2022-09-03T11:32:03.742Z,7.00
2022-09-03T11:34:55.129Z,7.10
2022-09-03T11:37:55.154Z,7.40
2022-09-03T11:41:02.465Z,8.20
2022-09-03T11:43:53.304Z,8.00
2022-09-03T11:46:54.510Z,8.60
2022-09-03T11:49:50.839Z,8.20
2022-09-03T11:52:40.811Z,7.40
2022-09-03T11:55:43.323Z,7.20
2022-09-03T11:58:36.233Z,8.30
2022-09-03T12:01:28.637Z,6.60
2022-09-03T12:04:22.031Z,8.80
2022-09-03T12:07:50.916Z,7.20
2022-09-03T12:10:53.386Z,9.60
2022-09-03T12:13:53.056Z,11.80
2022-09-03T12:17:03.626Z,8.10
2022-09-03T12:19:56.396Z,8.90
2022-09-03T12:22:46.555Z,8.70
2022-09-03T12:25:36.335Z,8.40
2022-09-03T12:28:31.050Z,9.20
2022-09-03T12:31:22.997Z,10.30
2022-09-03T12:34:17.382Z,7.00
2022-09-03T12:40:34.714Z,10.30
2022-09-03T12:43:49.838Z,10.00
2022-09-03T12:46:40.429Z,8.70
2022-09-03T12:49:35.139Z,9.00
2022-09-03T12:52:30.868Z,7.60
2022-09-03T12:55:36.952Z,7.50
2022-09-03T12:58:35.616Z,8.00
2022-09-03T13:01:29.239Z,10.90
2022-09-03T13:04:26.807Z,7.60
2022-09-03T13:07:25.024Z,9.00
2022-09-03T13:10:25.117Z,9.70
2022-09-03T13:13:25.517Z,8.10
2022-09-03T13:16:54.234Z,7.70
2022-09-03T13:19:56.836Z,6.80
2022-09-03T13:23:00.100Z,6.10
2022-09-03T13:26:05.992Z,7.10
2022-09-03T13:29:18.733Z,8.80
2022-09-03T13:32:19.703Z,7.10
2022-09-03T13:35:19.662Z,4.50
2022-09-03T13:38:27.276Z,5.00
2022-09-03T13:41:26.467Z,4.90
2022-09-03T13:44:32.592Z,8.00
2022-09-03T13:47:32.463Z,7.10
2022-09-03T13:50:27.338Z,12.10
2022-09-03T13:53:26.518Z,8.30
2022-09-03T13:56:36.168Z,8.00
2022-09-03T13:59:35.500Z,7.50
2022-09-03T14:02:35.406Z,9.10
2022-09-03T14:05:40.974Z,11.20
2022-09-03T14:08:35.719Z,7.30
2022-09-03T14:11:36.719Z,9.90
2022-09-03T14:14:42.871Z,9.00
2022-09-03T14:17:43.118Z,6.30
2022-09-03T14:20:38.493Z,9.40
2022-09-03T14:23:37.863Z,9.50
2022-09-03T14:26:39.007Z,10.20
2022-09-03T14:29:32.719Z,8.70
2022-09-03T14:32:32.177Z,8.80
2022-09-03T14:35:58.215Z,10.20
2022-09-03T14:39:04.158Z,14.20
2022-09-03T14:42:24.955Z,16.70
2022-09-03T14:45:44.704Z,18.10
2022-09-03T14:49:07.500Z,14.90
2022-09-03T14:52:21.025Z,12.60
2022-09-03T14:55:34.713Z,10.00
2022-09-03T14:58:42.103Z,11.30
2022-09-03T15:01:39.041Z,15.50
2022-09-03T15:04:53.059Z,13.40
2022-09-03T15:07:50.905Z,13.30
2022-09-03T15:10:47.634Z,10.80
2022-09-03T15:13:44.012Z,11.80
2022-09-03T15:16:50.456Z,8.60
2022-09-03T15:19:59.173Z,6.90
2022-09-03T15:23:12.050Z,9.30
2022-09-03T15:26:20.241Z,7.80
2022-09-03T15:29:26.553Z,5.10
2022-09-03T15:32:27.833Z,5.90
2022-09-03T15:35:33.889Z,4.50
2022-09-03T15:38:36.805Z,3.60
2022-09-03T15:41:41.614Z,4.50
2022-09-03T15:44:43.709Z,5.70
2022-09-03T15:47:43.166Z,5.50
2022-09-03T15:50:54.925Z,6.00
2022-09-03T15:53:55.625Z,5.70
2022-09-03T15:56:56.755Z,5.70
2022-09-03T15:59:56.622Z,5.30
2022-09-03T16:02:52.396Z,5.90
2022-09-03T16:05:47.800Z,5.30
2022-09-03T16:08:45.328Z,5.00
2022-09-03T16:11:42.554Z,4.00
2022-09-03T16:14:37.206Z,5.70
2022-09-03T16:17:33.092Z,4.90
2022-09-03T16:20:27.249Z,4.40
2022-09-03T16:23:22.686Z,6.20
2022-09-03T16:26:19.803Z,6.10
2022-09-03T16:29:15.699Z,5.20
2022-09-03T16:32:19.525Z,6.80
2022-09-03T16:35:23.707Z,5.90
2022-09-03T16:38:35.515Z,5.70
2022-09-03T16:41:30.782Z,6.20
2022-09-03T16:44:25.191Z,5.10
2022-09-03T16:47:25.894Z,4.70
2022-09-03T16:50:28.938Z,4.90
2022-09-03T16:53:29.279Z,4.50
2022-09-03T16:56:34.372Z,3.80
2022-09-03T16:59:48.580Z,4.80
2022-09-03T17:03:13.819Z,4.70
2022-09-03T17:06:46.189Z,3.30
2022-09-03T17:09:52.975Z,3.80
2022-09-03T17:12:58.074Z,4.20
2022-09-03T17:15:57.002Z,4.30
2022-09-03T17:18:55.269Z,3.50
2022-09-03T17:21:57.245Z,7.40
2022-09-03T17:24:52.871Z,5.80
2022-09-03T17:27:51.703Z,6.60
2022-09-03T17:30:49.899Z,5.80
2022-09-03T17:33:57.921Z,6.90
2022-09-03T17:37:06.816Z,5.60
2022-09-03T17:40:20.226Z,4.80
2022-09-03T17:43:19.899Z,4.10
2022-09-03T17:46:22.994Z,24.50
2022-09-03T17:49:23.117Z,90.70
2022-09-03T17:52:28.030Z,91.20
2022-09-03T17:55:25.767Z,43.10
2022-09-03T17:58:20.499Z,14.40
2022-09-03T18:01:18.283Z,7.80
2022-09-03T18:04:28.277Z,6.20
2022-09-03T18:07:27.758Z,5.00
2022-09-03T18:10:26.827Z,6.00
2022-09-03T18:13:24.246Z,4.00
2022-09-03T18:16:20.533Z,4.30
2022-09-03T18:19:19.097Z,4.70
2022-09-03T18:22:26.665Z,5.00
2022-09-03T18:25:36.241Z,4.80
2022-09-03T18:28:51.002Z,6.60
2022-09-03T18:31:58.708Z,4.40
2022-09-03T18:35:07.402Z,4.30
2022-09-03T18:38:15.191Z,7.90
2022-09-03T18:41:31.935Z,4.80
2022-09-03T18:44:54.721Z,4.80
2022-09-03T18:48:21.487Z,5.30
2022-09-03T18:51:36.984Z,6.00
2022-09-03T18:55:07.793Z,4.50
2022-09-03T18:58:27.405Z,5.80
2022-09-03T19:01:48.103Z,4.30
2022-09-03T19:05:10.051Z,5.10
2022-09-03T19:08:25.307Z,3.90
2022-09-03T19:11:46.332Z,3.90
2022-09-03T19:15:02.959Z,5.30
2022-09-03T19:18:26.737Z,3.70
2022-09-03T19:21:46.493Z,5.10
2022-09-03T19:24:53.748Z,5.50
2022-09-03T19:28:13.693Z,3.90
2022-09-03T19:31:57.570Z,4.60
2022-09-03T19:35:23.832Z,5.60
2022-09-03T19:38:40.670Z,4.90
2022-09-03T19:41:52.082Z,5.10
2022-09-03T19:45:10.441Z,4.00
2022-09-03T19:48:27.715Z,4.20
2022-09-03T19:51:39.717Z,5.80
2022-09-03T19:54:48.658Z,3.70
2022-09-03T19:57:56.150Z,4.80
2022-09-03T20:01:04.022Z,4.30
2022-09-03T20:04:11.396Z,4.80
2022-09-03T20:07:22.290Z,5.20
2022-09-03T20:10:25.177Z,5.00
2022-09-03T20:13:17.380Z,6.40
2022-09-03T20:16:14.081Z,4.00
2022-09-03T20:19:13.597Z,5.50
2022-09-03T20:22:16.878Z,3.60
2022-09-03T20:25:27.006Z,4.70
2022-09-03T20:28:33.681Z,4.70
2022-09-03T20:31:34.009Z,3.90
2022-09-03T20:34:42.609Z,4.10
2022-09-03T20:37:41.873Z,3.80
2022-09-03T20:40:43.391Z,4.50
2022-09-03T20:44:03.749Z,5.30
2022-09-03T20:47:06.196Z,4.10
2022-09-03T20:50:05.477Z,5.80
2022-09-03T20:53:10.459Z,4.10
2022-09-03T20:56:11.396Z,4.80
2022-09-03T20:59:09.435Z,5.70
2022-09-03T21:02:07.107Z,4.60
2022-09-03T21:05:10.843Z,5.50
2022-09-03T21:08:11.306Z,6.40
2022-09-03T21:11:07.309Z,6.10
2022-09-03T21:14:05.546Z,6.30
2022-09-03T21:17:05.941Z,5.40
2022-09-03T21:20:10.566Z,3.80
2022-09-03T21:23:13.478Z,3.80
2022-09-03T21:26:13.914Z,6.60
2022-09-03T21:29:17.351Z,4.80
2022-09-03T21:32:16.891Z,5.00
2022-09-03T21:35:17.292Z,5.60
2022-09-03T21:38:09.644Z,4.60
2022-09-03T21:41:06.792Z,5.10
2022-09-03T21:44:03.945Z,6.80
2022-09-03T21:46:59.681Z,5.80
2022-09-03T21:49:57.802Z,3.30
2022-09-03T21:52:53.663Z,4.60
2022-09-03T21:55:52.288Z,5.20
2022-09-03T21:58:58.337Z,6.40
2022-09-03T22:02:00.373Z,4.90
2022-09-03T22:04:50.833Z,4.60
2022-09-03T22:07:55.480Z,6.90
2022-09-03T22:10:58.150Z,6.40
2022-09-03T22:13:57.458Z,6.80
2022-09-03T22:16:52.928Z,5.80
2022-09-03T22:19:43.125Z,6.10
2022-09-03T22:22:40.932Z,6.60
2022-09-03T22:25:41.947Z,3.60
2022-09-03T22:28:36.913Z,7.40
2022-09-03T22:31:35.562Z,4.80
2022-09-03T22:34:39.112Z,5.80
2022-09-03T22:37:47.389Z,4.00
2022-09-03T22:40:46.865Z,4.40
2022-09-03T22:43:44.446Z,6.00
2022-09-03T22:46:41.420Z,4.70
2022-09-03T22:49:42.262Z,5.10
2022-09-03T22:52:40.550Z,5.70
2022-09-03T22:55:30.664Z,5.40
2022-09-03T22:58:24.633Z,5.10
2022-09-03T23:01:23.247Z,6.80
2022-09-03T23:04:29.327Z,6.90
2022-09-03T23:07:28.340Z,6.00
2022-09-03T23:10:25.767Z,10.30
2022-09-03T23:13:21.164Z,6.30
2022-09-03T23:16:18.371Z,7.40
2022-09-03T23:22:13.565Z,6.70
2022-09-03T23:25:09.858Z,8.10
2022-09-03T23:28:02.889Z,5.70
2022-09-03T23:30:52.904Z,4.00
2022-09-03T23:33:42.457Z,6.10
2022-09-03T23:40:26.250Z,7.30
2022-09-03T23:43:53.669Z,5.20
2022-09-03T23:46:54.981Z,7.10
2022-09-03T23:49:59.062Z,6.40
2022-09-03T23:53:07.227Z,7.80
2022-09-03T23:56:17.443Z,5.70
2022-09-03T23:59:16.317Z,4.10
